Terminal Aerodrome Forecast
Issued by NWS Sterling, VA

Current Version | Previous Version | Graphics & Text | Print | Product List | Glossary On
Versions: 1 2 3 4 5 6 7 8 9 10 11 12 13 14
000
FTUS41 KLWX 240714 AAA
TAFMRB
TAF AMD
KMRB 240714Z 2407/2506 VRB03KT 3SM BR VCSH SCT001 BKN040
      TEMPO 2407/2411 00000KT 1SM BR OVC001
     FM241200 29007KT P6SM BKN050
     FM250000 28005KT P6SM SCT060=

USA.gov is the U.S. government's official web portal to all federal, state and local government web resources and services.